createdAt,value
2019-05-22T00:02:29.052Z,15.00
2019-05-22T00:05:29.299Z,15.07
2019-05-22T00:08:16.977Z,15.93
2019-05-22T00:11:04.487Z,19.13
2019-05-22T00:13:51.573Z,15.50
2019-05-22T00:16:41.206Z,14.63
2019-05-22T00:19:29.798Z,14.30
2019-05-22T00:22:23.893Z,13.17
2019-05-22T00:25:15.338Z,14.03
2019-05-22T00:28:02.419Z,16.70
2019-05-22T00:30:50.691Z,14.70
2019-05-22T00:33:38.603Z,16.20
2019-05-22T00:36:26.272Z,14.90
2019-05-22T00:39:16.235Z,13.67
2019-05-22T00:42:05.444Z,14.43
2019-05-22T00:44:53.805Z,13.80
2019-05-22T00:47:41.688Z,13.20
2019-05-22T00:50:39.812Z,14.37
2019-05-22T00:53:38.914Z,12.57
2019-05-22T00:56:50.409Z,11.73
2019-05-22T00:59:40.334Z,12.70
2019-05-22T01:02:27.732Z,11.30
2019-05-22T01:05:16.719Z,13.00
2019-05-22T01:08:05.656Z,11.90
2019-05-22T01:10:54.190Z,11.00
2019-05-22T01:13:42.502Z,11.57
2019-05-22T01:16:29.070Z,11.00
2019-05-22T01:19:18.094Z,11.03
2019-05-22T01:22:05.909Z,11.20
2019-05-22T01:24:56.453Z,10.97
2019-05-22T01:27:43.336Z,11.23
2019-05-22T01:30:52.667Z,11.80
2019-05-22T01:33:53.967Z,10.60
2019-05-22T01:36:46.876Z,11.47
2019-05-22T01:39:53.087Z,11.10
2019-05-22T01:42:41.178Z,11.37
2019-05-22T01:45:29.029Z,11.67
2019-05-22T01:48:18.582Z,11.67
2019-05-22T01:51:06.600Z,12.10
2019-05-22T01:53:53.566Z,11.60
2019-05-22T01:56:41.439Z,11.70
2019-05-22T01:59:30.024Z,11.30
2019-05-22T02:02:18.637Z,12.03
2019-05-22T02:05:08.692Z,12.03
2019-05-22T02:07:55.275Z,11.17
2019-05-22T02:10:43.939Z,11.80
2019-05-22T02:13:38.279Z,13.07
2019-05-22T02:16:25.802Z,11.30
2019-05-22T02:19:13.977Z,11.47
2019-05-22T02:22:03.933Z,10.67
2019-05-22T02:24:51.675Z,10.70
2019-05-22T02:27:39.469Z,10.50
2019-05-22T02:30:27.197Z,10.73
2019-05-22T02:33:17.830Z,9.87
2019-05-22T02:36:05.577Z,11.47
2019-05-22T02:38:54.099Z,10.93
2019-05-22T02:41:46.546Z,11.30
2019-05-22T02:44:34.624Z,11.43
2019-05-22T02:47:24.595Z,11.90
2019-05-22T02:50:11.819Z,11.70
2019-05-22T02:53:01.000Z,11.07
2019-05-22T02:55:48.107Z,11.00
2019-05-22T02:58:35.231Z,10.80
2019-05-22T03:01:26.037Z,11.50
2019-05-22T03:04:13.766Z,10.63
2019-05-22T03:07:00.448Z,10.37
2019-05-22T03:09:47.605Z,10.40
2019-05-22T03:12:36.012Z,10.27
2019-05-22T03:15:25.187Z,10.30
2019-05-22T03:18:13.930Z,10.97
2019-05-22T03:21:00.582Z,10.23
2019-05-22T03:23:47.966Z,10.27
2019-05-22T03:26:46.962Z,9.90
2019-05-22T03:29:51.144Z,9.80
2019-05-22T03:32:43.389Z,9.50
2019-05-22T03:35:29.890Z,9.80
2019-05-22T03:38:18.501Z,9.90
2019-05-22T03:41:05.294Z,9.57
2019-05-22T03:43:52.945Z,9.50
2019-05-22T03:46:45.424Z,9.50
2019-05-22T03:49:32.331Z,9.80
2019-05-22T03:52:19.393Z,10.00
2019-05-22T03:55:08.963Z,10.13
2019-05-22T03:57:56.329Z,10.00
2019-05-22T04:00:44.726Z,9.50
2019-05-22T04:03:32.454Z,9.90
2019-05-22T04:06:21.311Z,9.90
2019-05-22T04:09:19.607Z,10.27
2019-05-22T04:12:06.503Z,9.83
2019-05-22T04:14:52.910Z,10.50
2019-05-22T04:17:42.295Z,9.87
2019-05-22T04:20:29.827Z,9.80
2019-05-22T04:23:16.607Z,10.30
2019-05-22T04:26:04.540Z,10.07
2019-05-22T04:28:54.502Z,10.03
2019-05-22T04:31:56.057Z,10.10
2019-05-22T04:34:47.072Z,10.47
2019-05-22T04:37:33.714Z,10.60
2019-05-22T04:44:13.269Z,10.47
2019-05-22T04:54:55.181Z,10.03
2019-05-22T05:01:28.145Z,9.80
2019-05-22T05:04:32.363Z,9.83
2019-05-22T05:11:36.793Z,9.87
2019-05-22T05:26:14.792Z,10.00
2019-05-22T13:13:58.443Z,12.30
2019-05-22T14:59:06.745Z,12.07
2019-05-22T15:11:41.847Z,12.10
2019-05-22T15:15:00.039Z,11.53
2019-05-22T15:19:49.228Z,11.17
2019-05-22T15:22:55.295Z,12.90
2019-05-22T15:25:05.237Z,11.10
2019-05-22T15:35:03.941Z,11.90
2019-05-22T15:42:04.069Z,12.00
2019-05-22T15:45:01.167Z,12.27
2019-05-22T15:48:29.417Z,12.67
2019-05-22T15:51:26.162Z,11.57
2019-05-22T16:02:27.857Z,11.97
2019-05-22T16:08:12.971Z,13.07
2019-05-22T16:08:56.680Z,13.13
2019-05-22T16:12:42.138Z,14.27
2019-05-22T16:16:00.205Z,11.77
2019-05-22T16:25:50.534Z,14.17
2019-05-22T16:28:43.246Z,12.50
2019-05-22T16:31:44.278Z,12.50
2019-05-22T16:38:15.059Z,13.63
2019-05-22T16:44:36.052Z,13.10
2019-05-22T16:48:32.314Z,13.23
2019-05-22T16:51:37.744Z,13.10
2019-05-22T16:54:33.432Z,15.40
2019-05-22T16:57:31.003Z,12.73
2019-05-22T17:00:18.736Z,13.70
2019-05-22T17:03:18.216Z,15.53
2019-05-22T17:06:10.561Z,13.23
2019-05-22T17:08:59.846Z,14.10
2019-05-22T17:11:48.824Z,15.00
2019-05-22T17:14:36.620Z,15.50
2019-05-22T17:17:24.166Z,15.07
2019-05-22T17:20:15.654Z,15.93
2019-05-22T17:23:03.557Z,13.50
2019-05-22T17:25:51.654Z,13.47
2019-05-22T17:35:29.258Z,14.57
2019-05-22T17:39:42.324Z,14.47
2019-05-22T17:46:05.207Z,13.90
2019-05-22T17:49:03.732Z,17.90
2019-05-22T17:52:04.010Z,14.77
2019-05-22T17:55:22.078Z,13.23
2019-05-22T17:58:11.467Z,15.30
2019-05-22T18:00:59.964Z,13.73
2019-05-22T18:03:55.782Z,12.70
2019-05-22T18:06:45.135Z,15.60
2019-05-22T18:09:56.941Z,33.33
2019-05-22T18:12:55.365Z,26.57
2019-05-22T18:15:51.596Z,16.43
2019-05-22T18:18:39.806Z,14.20
2019-05-22T18:21:31.737Z,13.87
2019-05-22T18:24:21.956Z,13.97
2019-05-22T18:27:10.419Z,14.07
2019-05-22T18:30:08.474Z,15.33
2019-05-22T18:32:55.945Z,13.17
2019-05-22T18:36:34.018Z,12.80
2019-05-22T18:39:22.260Z,19.33
2019-05-22T18:42:16.530Z,12.40
2019-05-22T18:45:07.452Z,12.80
2019-05-22T18:48:09.868Z,15.00
2019-05-22T18:51:01.255Z,13.73
2019-05-22T18:53:53.765Z,12.97
2019-05-22T18:56:49.893Z,12.37
2019-05-22T18:59:48.977Z,11.50
2019-05-22T19:02:29.593Z,12.47
2019-05-22T19:05:21.412Z,11.73
2019-05-22T19:08:45.471Z,11.60
2019-05-22T19:20:11.577Z,11.70
2019-05-22T19:23:10.327Z,11.23
2019-05-22T19:26:05.534Z,11.83
2019-05-22T19:32:54.904Z,12.60
2019-05-22T19:35:45.060Z,11.70
2019-05-22T19:38:32.839Z,11.47
2019-05-22T19:41:20.102Z,12.67
2019-05-22T19:44:07.125Z,11.40
2019-05-22T19:46:57.434Z,11.60
2019-05-22T19:50:03.335Z,11.70
2019-05-22T20:01:27.261Z,10.63
2019-05-22T20:04:51.112Z,11.10
2019-05-22T20:08:12.100Z,11.03
2019-05-22T20:11:25.623Z,10.83
2019-05-22T20:18:28.823Z,11.10
2019-05-22T20:22:10.525Z,11.10
2019-05-22T20:24:55.088Z,11.07
2019-05-22T20:27:55.376Z,11.50
2019-05-22T20:30:43.752Z,11.10
2019-05-22T20:33:45.798Z,11.33
2019-05-22T20:36:42.587Z,10.70
2019-05-22T20:39:31.465Z,11.40
2019-05-22T20:42:30.241Z,11.50
2019-05-22T20:45:24.499Z,11.00
2019-05-22T20:48:28.489Z,10.43
2019-05-22T20:51:17.409Z,11.83
2019-05-22T20:54:14.754Z,11.43
2019-05-22T20:57:30.497Z,11.20
2019-05-22T21:00:44.861Z,11.27
2019-05-22T21:12:17.925Z,11.27
2019-05-22T21:20:54.178Z,10.40
2019-05-22T21:27:57.527Z,11.57
2019-05-22T21:38:11.179Z,10.60
2019-05-22T21:45:19.310Z,10.80
2019-05-22T21:48:41.061Z,10.30
2019-05-22T21:51:30.201Z,10.47
2019-05-22T21:57:58.188Z,10.53
2019-05-22T22:01:39.139Z,11.10
2019-05-22T22:08:50.412Z,10.50
2019-05-22T22:16:34.542Z,10.90
2019-05-22T22:22:43.212Z,10.40
2019-05-22T22:37:45.990Z,10.90
2019-05-22T22:40:43.917Z,11.00
2019-05-22T22:43:34.257Z,10.37
2019-05-22T22:46:35.563Z,10.50
2019-05-22T22:49:22.904Z,10.97
2019-05-22T22:52:13.471Z,10.27
2019-05-22T22:55:01.057Z,10.47
2019-05-22T22:57:49.024Z,10.47
2019-05-22T23:00:39.197Z,12.10
2019-05-22T23:03:29.438Z,10.57
2019-05-22T23:06:16.441Z,10.10
2019-05-22T23:09:04.711Z,10.30
2019-05-22T23:11:52.607Z,11.13
2019-05-22T23:14:44.811Z,11.90
2019-05-22T23:17:31.635Z,10.33
2019-05-22T23:20:17.449Z,10.17
2019-05-22T23:23:03.643Z,10.63
2019-05-22T23:25:50.580Z,10.80
2019-05-22T23:28:40.737Z,10.23
2019-05-22T23:31:28.699Z,10.50
2019-05-22T23:34:16.286Z,10.33
2019-05-22T23:37:03.305Z,10.40
2019-05-22T23:39:52.770Z,10.20
2019-05-22T23:42:42.740Z,10.23
2019-05-22T23:45:29.683Z,10.10
2019-05-22T23:48:16.602Z,10.40
2019-05-22T23:51:05.453Z,10.17
2019-05-22T23:53:53.460Z,11.00
2019-05-22T23:56:41.070Z,10.60
2019-05-22T23:59:27.804Z,10.70
